createdAt,value
2023-06-16T16:27:23.641Z,143849.19
2023-06-16T16:32:27.647Z,143788.25
2023-06-16T16:37:35.163Z,143584.41
2023-06-16T16:42:40.787Z,143518.56
2023-06-16T16:47:44.245Z,143477.59
2023-06-16T16:52:47.749Z,143441.56
2023-06-16T16:57:52.537Z,143409.28
2023-06-16T17:02:55.990Z,143374.53
2023-06-16T17:07:59.412Z,143354.66
2023-06-16T17:13:09.803Z,143355.91
2023-06-16T17:18:16.213Z,143379.50
2023-06-16T17:23:21.807Z,143352.19
2023-06-16T17:28:29.241Z,143337.31
2023-06-16T17:33:32.790Z,143317.44
2023-06-16T17:38:36.148Z,143344.75
2023-06-16T17:43:40.893Z,143393.16
2023-06-16T17:48:44.295Z,143406.81
2023-06-16T17:53:47.676Z,143386.91
2023-06-16T17:58:52.685Z,143369.56
2023-06-16T18:03:56.405Z,143379.50
2023-06-16T18:08:59.805Z,143420.50
2023-06-16T18:14:04.929Z,143426.69
2023-06-16T18:19:08.274Z,143439.09
2023-06-16T18:24:11.839Z,143440.31
2023-06-16T18:29:16.808Z,143452.75
2023-06-16T18:34:20.313Z,143460.19
2023-06-16T18:39:23.652Z,143462.69
2023-06-16T18:44:28.763Z,143485.06
2023-06-16T18:49:32.147Z,143492.47
2023-06-16T18:54:35.751Z,143492.47
2023-06-16T18:59:40.807Z,143485.06
2023-06-16T19:04:49.204Z,143493.72
2023-06-16T19:09:52.735Z,143498.69
2023-06-16T19:14:57.669Z,143493.72
2023-06-16T19:20:05.863Z,143503.66
2023-06-16T19:25:11.737Z,143501.16
2023-06-16T19:30:16.945Z,143490.00
2023-06-16T19:35:23.852Z,143509.88
2023-06-16T19:40:27.372Z,143514.84
2023-06-16T19:45:34.425Z,143508.66
2023-06-16T19:50:37.896Z,143514.84
2023-06-16T19:55:49.675Z,143503.66
2023-06-16T20:00:56.152Z,143509.88
2023-06-16T20:05:59.663Z,143513.63
2023-06-16T20:11:03.124Z,143503.66
2023-06-16T20:16:08.785Z,143508.66
2023-06-16T20:21:12.936Z,143493.72
2023-06-16T20:26:17.373Z,143498.69
2023-06-16T20:31:22.403Z,143509.88
2023-06-16T20:36:27.584Z,143486.28
2023-06-16T20:41:34.292Z,143486.28
2023-06-16T20:46:40.155Z,143492.47
2023-06-16T20:51:43.723Z,143490.00
2023-06-16T20:56:50.170Z,143492.47
2023-06-16T21:01:55.036Z,143491.25
2023-06-16T21:07:03.510Z,143477.59
2023-06-16T21:12:07.406Z,143482.56
2023-06-16T21:17:12.639Z,143477.59
2023-06-16T21:22:16.298Z,143465.16
2023-06-16T21:27:20.026Z,143455.25
2023-06-16T21:32:30.074Z,143455.25
2023-06-16T21:37:34.584Z,143424.22
2023-06-16T21:42:38.367Z,143417.97
2023-06-16T21:47:45.765Z,143410.53
